CheckWX is a tool to help pilots better visualize weather data.  It is not intended as a substitute for an official pre-flight weather briefing.

06:43:32 UTC

KAAS METAR
Taylor County Airport
Campbellsville, Kentucky, USA
Current

29 mins ago

KAAS 310615Z AUTO 00000KT 10SM CLR 11/03 A3007 RMK AO1
Observed
Mar-31 @ 06:15 UTC
Visibility
10 SM
Flight Rules
VFR
Cloud Levels
  • Clear skies
Temperature
11°C / 52°F
Dewpoint
C / 37°F
Humidity
58%
Altimeter
30.07" Hg
Pressure
1018.32 hPa
Previous

49 mins ago

KAAS 310555Z AUTO 00000KT 10SM CLR 11/04 A3007 RMK AO1
Observed
Mar-31 @ 05:55 UTC
Visibility
10 SM
Flight Rules
VFR
Cloud Levels
  • Clear skies
Temperature
11°C / 52°F
Dewpoint
C / 39°F
Humidity
62%
Altimeter
30.07" Hg
Pressure
1018.32 hPa
Previous

1 hour ago

KAAS 310535Z AUTO 00000KT 10SM CLR 11/02 A3007 RMK AO1
Observed
Mar-31 @ 05:35 UTC
Visibility
10 SM
Flight Rules
VFR
Cloud Levels
  • Clear skies
Temperature
11°C / 52°F
Dewpoint
C / 36°F
Humidity
54%
Altimeter
30.07" Hg
Pressure
1018.32 hPa